Time;durP1;ratioP1;P1;durP2;ratioP2;P2;SDS_P1;SDS_P2;PMS_P1;PMS_P2;Temp;Humidity;BMP_temperature;BMP_pressure;BME280_temperature;BME280_humidity;BME280_pressure;Samples;Min_cycle;Max_cycle;Signal;HPM_P1;HPM_P2
2022/08/01 00:00:22;;;;;;;8.60;5.55;;;;;;;;;;4841264;29;20057;-88
2022/08/01 00:02:57;;;;;;;12.32;5.25;;;;;;;;;;4836104;29;21424;-86
2022/08/01 00:05:23;;;;;;;13.65;4.70;;;;;;;;;;4845803;29;20081;-87
2022/08/01 00:08:20;;;;;;;14.10;5.88;;;;;;;;;;4831110;29;20275;-85
2022/08/01 00:10:47;;;;;;;12.15;4.00;;;;;;;;;;4834235;29;20471;-84
2022/08/01 00:13:28;;;;;;;10.27;3.38;;;;;;;;;;4843220;29;20073;-85
2022/08/01 00:16:03;;;;;;;12.57;4.15;;;;;;;;;;4856068;23;20049;-86
2022/08/01 00:18:35;;;;;;;6.93;3.78;;;;;;;;;;4841076;29;20056;-84
2022/08/01 00:21:14;;;;;;;10.20;4.10;;;;;;;;;;4861579;29;20041;-82
2022/08/01 00:23:49;;;;;;;8.93;4.50;;;;;;;;;;4864648;29;20045;-83
2022/08/01 00:26:15;;;;;;;10.40;4.70;;;;;;;;;;4855129;29;20050;-85
2022/08/01 00:28:41;;;;;;;14.18;5.38;;;;;;;;;;4859460;29;20053;-86
2022/08/01 00:31:17;;;;;;;13.73;4.95;;;;;;;;;;4864046;29;20153;-82
2022/08/01 00:34:10;;;;;;;10.15;4.57;;;;;;;;;;4839854;29;21054;-82
2022/08/01 00:36:55;;;;;;;7.32;4.43;;;;;;;;;;4813292;29;20483;-84
2022/08/01 01:00:17;;;;;;;8.23;2.78;;;17.70;99.90;;;;;;4872469;29;20046;-84
2022/08/01 01:03:01;;;;;;;14.52;3.30;;;;;;;;;;4871583;29;20037;-85
2022/08/01 01:05:38;;;;;;;11.90;3.00;;;;;;;;;;4850730;29;20053;-86
2022/08/01 01:08:07;;;;;;;8.75;3.10;;;;;;;;;;4863443;29;20546;-86
2022/08/01 01:10:52;;;;;;;5.40;2.40;;;;;;;;;;4845736;29;20042;-86
2022/08/01 01:13:35;;;;;;;8.52;2.22;;;;;;;;;;4865504;29;20049;-85
2022/08/01 01:16:26;;;;;;;8.55;2.35;;;;;;;;;;4859625;29;20084;-83
2022/08/01 01:19:05;;;;;;;8.85;2.47;;;;;;;;;;4846735;29;20117;-85
2022/08/01 01:21:43;;;;;;;4.35;2.65;;;;;;;;;;4856683;29;20139;-84
2022/08/01 01:24:10;;;;;;;10.65;3.40;;;;;;;;;;4840241;29;20088;-88
2022/08/01 01:26:53;;;;;;;7.53;2.83;;;;;;;;;;4862635;29;20038;-86
2022/08/01 01:29:26;;;;;;;6.95;3.00;;;;;;;;;;4858569;29;20048;-85
2022/08/01 01:32:05;;;;;;;8.65;3.53;;;;;;;;;;4855206;29;20053;-84
2022/08/01 01:41:29;;;;;;;8.68;3.05;;;;;;;;;;4871429;23;20548;-87
2022/08/01 01:43:55;;;;;;;12.80;3.78;;;;;;;;;;4816945;29;20391;-84
2022/08/01 01:46:24;;;;;;;14.90;4.22;;;;;;;;;;4820272;29;20054;-87
2022/08/01 01:48:50;;;;;;;9.18;3.20;;;;;;;;;;4803034;29;20123;-88
2022/08/01 01:51:17;;;;;;;15.93;4.47;;;;;;;;;;4819528;29;20055;-86
2022/08/01 01:53:47;;;;;;;8.38;3.03;;;;;;;;;;4813403;29;20107;-84
2022/08/01 01:56:15;;;;;;;13.95;2.97;;;;;;;;;;4805023;29;20045;-85
2022/08/01 01:58:50;;;;;;;15.23;3.17;;;;;;;;;;4814639;29;20050;-87
2022/08/01 02:04:17;;;;;;;13.30;3.30;;;;;;;;;;4787633;29;20039;-83
2022/08/01 02:06:46;;;;;;;15.20;3.03;;;;;;;;;;4820502;29;20091;-83
2022/08/01 02:09:22;;;;;;;9.07;2.40;;;;;;;;;;4816878;29;20061;-86
2022/08/01 02:11:58;;;;;;;12.88;2.45;;;;;;;;;;4820693;29;20056;-85
2022/08/01 02:14:29;;;;;;;14.85;2.92;;;;;;;;;;4809103;29;20610;-87
2022/08/01 02:17:03;;;;;;;16.65;3.38;;;;;;;;;;4817883;29;20046;-83
2022/08/01 02:19:34;;;;;;;15.27;3.65;;;;;;;;;;4824147;29;20054;-85
2022/08/01 02:22:09;;;;;;;12.02;3.35;;;;;;;;;;4818544;29;20046;-87
2022/08/01 02:24:52;;;;;;;12.50;3.17;;;;;;;;;;4821094;29;20062;-84
2022/08/01 02:27:30;;;;;;;13.85;4.00;;;;;;;;;;4815980;29;20110;-87
2022/08/01 02:30:10;;;;;;;16.30;5.40;;;;;;;;;;4817069;29;20035;-88
2022/08/01 02:32:39;;;;;;;19.58;3.90;;;;;;;;;;4802232;29;20055;-83
2022/08/01 02:35:08;;;;;;;11.73;3.15;;;;;;;;;;4792013;29;20074;-87
2022/08/01 02:37:47;;;;;;;18.92;3.53;;;;;;;;;;4821892;29;20050;-85
2022/08/01 02:40:14;;;;;;;13.77;3.58;;;;;;;;;;4818717;29;20081;-88
2022/08/01 02:42:53;;;;;;;14.35;3.70;;;;;;;;;;4806662;29;20054;-83
2022/08/01 02:45:22;;;;;;;13.68;4.15;;;;;;;;;;4821180;29;20566;-86
2022/08/01 02:47:50;;;;;;;16.30;3.53;;;;;;;;;;4791037;29;20042;-85
2022/08/01 02:50:24;;;;;;;9.90;3.40;;;;;;;;;;4805539;29;20090;-84
2022/08/01 02:52:53;;;;;;;;;;;;;;;;;;4816445;29;20458;-86
2022/08/01 02:55:19;;;;;;;20.38;4.32;;;;;;;;;;4799368;29;19964;-83
2022/08/01 02:57:46;;;;;;;17.27;4.20;;;;;;;;;;4815691;29;20058;-85
2022/08/01 03:00:14;;;;;;;11.93;4.00;;;;;;;;;;4805730;29;20051;-85
2022/08/01 03:02:48;;;;;;;10.50;3.50;;;;;;;;;;4821458;29;20048;-84
2022/08/01 03:05:20;;;;;;;13.48;3.55;;;;;;;;;;4824744;29;20370;-85
2022/08/01 03:07:48;;;;;;;14.27;3.35;;;;;;;;;;4818353;29;20104;-85
2022/08/01 03:10:27;;;;;;;7.85;3.13;;;;;;;;;;4820742;29;20085;-87
2022/08/01 03:15:20;;;;;;;12.63;3.17;;;;;;;;;;4854166;23;20061;-86
2022/08/01 03:18:00;;;;;;;17.15;3.60;;;;;;;;;;4832118;29;20056;-85
2022/08/01 03:20:36;;;;;;;16.02;3.15;;;;;;;;;;4848620;29;20415;-84
2022/08/01 03:23:05;;;;;;;23.48;3.50;;;;;;;;;;4843221;29;20052;-86
2022/08/01 03:25:39;;;;;;;14.23;3.05;;;;;;;;;;4845382;29;20077;-84
2022/08/01 03:28:06;;;;;;;12.88;2.90;;;;;;;;;;4851688;29;20515;-83
2022/08/01 03:30:42;;;;;;;14.32;3.88;;;;;;;;;;4841285;29;20061;-83
2022/08/01 03:33:11;;;;;;;12.60;3.13;;;;;;;;;;4860940;29;20063;-84
2022/08/01 03:35:48;;;;;;;14.23;4.22;;;;;;;;;;4850594;29;20053;-86
2022/08/01 03:38:26;;;;;;;15.93;3.65;;;;;;;;;;4852026;29;20056;-86
2022/08/01 03:41:13;;;;;;;9.45;3.55;;;;;;;;;;4844745;29;20076;-86
2022/08/01 03:43:58;;;;;;;12.98;4.13;;;;;;;;;;4849177;29;20061;-81
2022/08/01 03:46:39;;;;;;;16.30;3.83;;;;;;;;;;4828499;29;20038;-84
2022/08/01 03:49:18;;;;;;;15.80;3.70;;;;;;;;;;4856594;29;20102;-89
2022/08/01 03:52:04;;;;;;;22.08;4.03;;;;;;;;;;4862138;29;20056;-84
2022/08/01 03:54:42;;;;;;;26.10;4.55;;;;;;;;;;4862849;29;20049;-90
2022/08/01 03:57:17;;;;;;;22.50;3.97;;;;;;;;;;4861568;29;20037;-83
2022/08/01 03:59:58;;;;;;;18.42;3.80;;;;;;;;;;4855105;29;20057;-84
2022/08/01 04:02:25;;;;;;;18.00;3.97;;;;;;;;;;4846388;29;20304;-85
2022/08/01 04:04:59;;;;;;;28.25;4.60;;;;;;;;;;4843963;29;20046;-83
2022/08/01 04:07:35;;;;;;;27.00;4.10;;;;;;;;;;4840261;29;22733;-83
2022/08/01 04:10:17;;;;;;;34.63;4.75;;;;;;;;;;4840717;29;20542;-84
2022/08/01 04:13:02;;;;;;;24.95;4.05;;;;;;;;;;4844346;29;20046;-83
2022/08/01 04:18:56;;;;;;;19.58;3.63;;;;;;;;;;4825363;29;20189;-86
2022/08/01 04:21:27;;;;;;;23.95;3.83;;;;;;;;;;4822488;29;20054;-86
2022/08/01 04:23:54;;;;;;;20.95;4.05;;;;;;;;;;4825785;29;20042;-84
2022/08/01 04:26:22;;;;;;;19.95;3.72;;;;;;;;;;4830553;29;20514;-85
2022/08/01 04:28:51;;;;;;;25.75;4.25;;;;;;;;;;4822402;29;20118;-85
2022/08/01 04:31:18;;;;;;;28.90;4.28;;;;;;;;;;4824581;29;20092;-83
2022/08/01 04:33:57;;;;;;;31.60;4.82;;;;;;;;;;4823187;29;20126;-87
2022/08/01 04:36:30;;;;;;;26.50;4.72;;;;;;;;;;4828232;29;20511;-85
2022/08/01 04:39:01;;;;;;;26.90;4.35;;;;;;;;;;4826870;29;20049;-83
2022/08/01 04:41:27;;;;;;;27.48;4.47;;;;;;;;;;4819727;29;20172;-83
2022/08/01 04:44:05;;;;;;;20.95;3.83;;;;;;;;;;4827855;29;20129;-87
2022/08/01 04:46:36;;;;;;;21.67;4.70;;;;;;;;;;4825790;29;20748;-82
2022/08/01 04:49:05;;;;;;;26.60;4.18;;;;;;;;;;4826048;29;20051;-83
2022/08/01 04:51:31;;;;;;;19.17;3.95;;;;;;;;;;4818475;29;20049;-82
2022/08/01 04:54:04;;;;;;;45.83;4.55;;;;;;;;;;4803108;29;20101;-83
2022/08/01 04:56:30;;;;;;;27.23;5.50;;;;;;;;;;4826279;29;20118;-81
2022/08/01 05:01:49;;;;;;;28.85;4.57;;;;;;;;;;4803574;29;20062;-84
2022/08/01 05:04:15;;;;;;;25.00;4.65;;;;;;;;;;4822049;29;20054;-83
2022/08/01 05:06:41;;;;;;;20.25;3.83;;;;;;;;;;4825014;29;20077;-82
2022/08/01 05:09:14;;;;;;;31.05;5.80;;;;;;;;;;4818174;29;20092;-81
2022/08/01 05:11:43;;;;;;;31.75;4.65;;;;;;;;;;4808966;29;20050;-82
2022/08/01 05:14:09;;;;;;;24.98;4.45;;;;;;;;;;4806181;29;20050;-83
2022/08/01 05:16:47;;;;;;;25.02;4.68;;;;;;;;;;4842484;29;21185;-83
2022/08/01 05:19:13;;;;;;;27.75;5.22;;;;;;;;;;4851637;29;20035;-82
2022/08/01 05:21:40;;;;;;;25.27;4.25;;;;;;;;;;4840358;29;20065;-83
2022/08/01 05:24:10;;;;;;;25.80;5.00;;;;;;;;;;4845809;29;20186;-84
2022/08/01 05:26:54;;;;;;;21.25;4.63;;;;;;;;;;4851465;29;20106;-83
2022/08/01 05:29:21;;;;;;;13.77;4.38;;;;;;;;;;4853784;29;20076;-85
2022/08/01 05:31:50;;;;;;;24.23;4.65;;;;;;;;;;4832158;29;20070;-83
2022/08/01 05:34:30;;;;;;;20.27;3.85;;;;;;;;;;4847491;29;20049;-81
2022/08/01 05:36:58;;;;;;;27.35;5.25;;;;;;;;;;4847005;29;20053;-83
2022/08/01 05:39:42;;;;;;;19.77;3.72;;;;;;;;;;4831792;29;20560;-83
2022/08/01 05:42:33;;;;;;;24.88;3.95;;;;;;;;;;4840438;29;20046;-83
2022/08/01 05:45:12;;;;;;;28.10;4.35;;;;;;;;;;4827010;29;20062;-83
2022/08/01 05:47:38;;;;;;;26.30;4.35;;;;;;;;;;4846905;29;20041;-83
2022/08/01 05:50:04;;;;;;;21.65;4.03;;;;;;;;;;4841574;29;20113;-84
2022/08/01 05:52:37;;;;;;;21.00;4.28;;;;;;;;;;4844135;29;20077;-84
2022/08/01 05:55:04;;;;;;;20.08;3.70;;;;;;;;;;4849525;29;20050;-84
2022/08/01 05:57:39;;;;;;;21.77;3.85;;;;;;;;;;4847192;29;20415;-82
2022/08/01 06:00:06;;;;;;;20.63;4.30;;;;;;;;;;4845655;29;20041;-77
2022/08/01 06:02:32;;;;;;;31.48;4.72;;;;;;;;;;4835452;29;20042;-76
2022/08/01 06:04:58;;;;;;;18.67;4.35;;;;;;;;;;4842987;29;20165;-78
2022/08/01 06:07:24;;;;;;;19.92;3.65;;;;;;;;;;4841992;29;20097;-77
2022/08/01 06:09:50;;;;;;;19.58;3.75;;;;;;;;;;4834916;29;20058;-78
2022/08/01 06:12:16;;;;;;;23.75;3.42;;;;;;;;;;4836350;29;20080;-78
2022/08/01 06:14:42;;;;;;;24.95;4.03;;;;;;;;;;4827859;29;20062;-77
2022/08/01 06:17:08;;;;;;;27.92;3.90;;;;;;;;;;4812017;29;20057;-76
2022/08/01 06:19:34;;;;;;;28.08;3.60;;;;;;;;;;4822872;29;20069;-78
2022/08/01 06:22:00;;;;;;;17.50;4.00;;;;;;;;;;4818225;29;20046;-77
2022/08/01 06:24:26;;;;;;;19.15;3.35;;;;;;;;;;4824658;29;20046;-79
2022/08/01 06:26:52;;;;;;;17.92;4.07;;;;;;;;;;4820784;29;20038;-78
2022/08/01 06:29:19;;;;;;;19.58;4.05;;;;;;;;;;4826213;29;20967;-77
2022/08/01 06:31:45;;;;;;;17.27;3.83;;;;;;;;;;4822934;29;20053;-78
2022/08/01 06:34:11;;;;;;;17.30;3.58;;;;;;;;;;4831386;29;20106;-77
2022/08/01 06:36:37;;;;;;;23.08;3.40;;;;;;;;;;4825785;29;20080;-78
2022/08/01 06:39:03;;;;;;;18.35;2.95;;;;;;;;;;4828881;29;20611;-79
2022/08/01 06:41:29;;;;;;;30.63;4.15;;;;;;;;;;4822089;29;20041;-81
2022/08/01 06:44:04;;;;;;;17.98;3.15;;;;;;;;;;4828545;29;20087;-77
2022/08/01 06:46:30;;;;;;;20.40;3.60;;;;;;;;;;4811064;29;20049;-80
2022/08/01 06:49:02;;;;;;;17.05;3.47;;;;;;;;;;4824577;29;20118;-78
2022/08/01 06:51:34;;;;;;;20.35;3.25;;;;;;;;;;4826063;29;20061;-78
2022/08/01 06:54:00;;;;;;;28.55;3.92;;;;;;;;;;4810811;29;20125;-79
2022/08/01 06:56:26;;;;;;;15.50;2.88;;;;;;;;;;4812692;29;20050;-79
2022/08/01 06:58:52;;;;;;;21.92;3.63;;;;;;;;;;4831026;29;20050;-80
2022/08/01 07:01:18;;;;;;;16.02;3.60;;;;;;;;;;4836405;29;20053;-82
2022/08/01 07:03:44;;;;;;;19.48;3.60;;;;;;;;;;4832463;29;20070;-80
2022/08/01 07:06:11;;;;;;;23.77;3.75;;;;;;;;;;4812739;29;20045;-79
2022/08/01 07:08:37;;;;;;;16.85;2.58;;;;;;;;;;4813958;29;20399;-77
2022/08/01 07:11:03;;;;;;;17.30;2.63;;;;;;;;;;4821435;29;20050;-78
2022/08/01 07:13:30;;;;;;;15.32;2.08;;;;;;;;;;4827475;29;20085;-78
2022/08/01 07:15:57;;;;;;;18.15;3.13;;;;;;;;;;4826343;29;20489;-78
2022/08/01 07:18:23;;;;;;;17.70;2.92;;;;;;;;;;4801203;29;20134;-78
2022/08/01 07:20:50;;;;;;;21.60;3.40;;;;;;;;;;4812233;29;20106;-78
2022/08/01 07:23:16;;;;;;;21.00;3.10;;;;;;;;;;4827757;29;20095;-81
2022/08/01 07:25:42;;;;;;;17.80;3.72;;;;;;;;;;4826857;29;20034;-78
2022/08/01 07:28:08;;;;;;;20.60;2.88;;;;;;;;;;4819527;29;20122;-78
2022/08/01 07:30:34;;;;;;;18.52;2.88;;;;;;;;;;4820427;29;20042;-80
2022/08/01 07:33:01;;;;;;;17.50;2.78;;;;;;;;;;4817674;29;20031;-78
2022/08/01 07:35:30;;;;;;;13.45;2.65;;;;;;;;;;4818992;29;20050;-78
2022/08/01 07:37:56;;;;;;;15.27;2.47;;;;;;;;;;4817788;29;20046;-78
2022/08/01 07:40:22;;;;;;;17.33;2.85;;;;;;;;;;4820664;29;20069;-77
2022/08/01 07:42:48;;;;;;;18.23;2.60;;;;;;;;;;4819962;29;20038;-82
2022/08/01 07:45:15;;;;;;;16.83;2.22;;;;;;;;;;4818208;29;20150;-78
2022/08/01 07:47:41;;;;;;;18.33;2.90;;;;;;;;;;4819449;29;20053;-78
2022/08/01 07:50:07;;;;;;;22.35;3.33;;;;;;;;;;4821154;29;20049;-79
2022/08/01 07:52:42;;;;;;;17.50;3.78;;;;;;;;;;4829660;29;20057;-78
2022/08/01 07:55:12;;;;;;;16.13;2.60;;;;;;;;;;4805604;29;20058;-80
2022/08/01 07:57:38;;;;;;;14.13;2.75;;;;;;;;;;4821752;29;20421;-78
2022/08/01 08:00:06;;;;;;;17.80;2.30;;;;;;;;;;4809535;29;20046;-78
2022/08/01 08:02:32;;;;;;;14.68;2.22;;;;;;;;;;4828463;29;20593;-78
2022/08/01 08:04:58;;;;;;;19.60;2.78;;;;;;;;;;4821356;29;20586;-77
2022/08/01 08:07:24;;;;;;;18.38;2.42;;;;;;;;;;4818129;29;20046;-77
2022/08/01 08:09:50;;;;;;;22.77;3.15;;;;;;;;;;4819647;29;20042;-78
2022/08/01 08:12:16;;;;;;;11.70;2.50;;;;;;;;;;4818170;29;20106;-77
2022/08/01 08:14:42;;;;;;;10.75;2.65;;;;;;;;;;4821741;29;20060;-76
2022/08/01 08:17:08;;;;;;;17.90;2.72;;;;;;;;;;4816448;29;20201;-79
2022/08/01 08:19:37;;;;;;;15.57;2.72;;;;;;;;;;4819986;29;20050;-78
2022/08/01 08:22:03;;;;;;;17.88;2.10;;;;;;;;;;4803286;29;20050;-79
2022/08/01 08:24:30;;;;;;;16.30;2.55;;;;;;;;;;4813835;29;20816;-77
2022/08/01 08:26:57;;;;;;;13.90;2.47;;;;;;;;;;4812901;29;20053;-77
2022/08/01 08:29:24;;;;;;;18.10;2.70;;;;;;;;;;4816714;29;20042;-77
2022/08/01 08:31:50;;;;;;;13.25;2.42;;;;;;;;;;4820153;29;20054;-77
2022/08/01 08:34:17;;;;;;;14.75;2.38;;;;;;;;;;4819468;29;20503;-77
2022/08/01 08:36:43;;;;;;;16.00;2.60;;;;;;;;;;4827032;29;20138;-77
2022/08/01 08:39:09;;;;;;;10.98;2.20;;;;;;;;;;4820139;29;20038;-79
2022/08/01 08:41:35;;;;;;;19.30;2.10;;;;;;;;;;4817610;29;21306;-77
2022/08/01 08:44:03;;;;;;;13.00;3.13;;;;;;;;;;4826601;29;20048;-77
2022/08/01 08:46:32;;;;;;;14.40;3.20;;;;;;;;;;4818873;29;20124;-77
2022/08/01 08:48:59;;;;;;;13.35;2.17;;;;;;;;;;4823438;29;20047;-80
2022/08/01 08:51:26;;;;;;;9.05;1.88;;;;;;;;;;4801319;29;20050;-80
2022/08/01 08:53:59;;;;;;;18.63;3.03;;;;;;;;;;4822580;29;20061;-79
2022/08/01 08:56:26;;;;;;;16.35;2.10;;;;;;;;;;4818094;29;20145;-78
2022/08/01 08:58:52;;;;;;;13.93;2.90;;;;;;;;;;4819197;29;20468;-79
2022/08/01 09:01:21;;;;;;;12.20;2.20;;;;;;;;;;4820199;29;20453;-77
2022/08/01 09:03:55;;;;;;;12.00;2.50;;;;;;;;;;4810621;29;20046;-77
2022/08/01 09:06:21;;;;;;;13.27;2.38;;;;;;;;;;4820420;29;20082;-78
2022/08/01 09:08:48;;;;;;;11.48;1.65;;;;;;;;;;4822502;29;20526;-78
2022/08/01 09:11:14;;;;;;;13.85;2.10;;;;;;;;;;4821842;29;20050;-78
2022/08/01 09:13:40;;;;;;;16.55;3.55;;;;;;;;;;4819764;29;20453;-81
2022/08/01 09:16:08;;;;;;;18.83;2.50;;;;;;;;;;4826885;29;20529;-78
2022/08/01 09:18:44;;;;;;;11.07;2.42;;;;;;;;;;4805587;29;20050;-83
2022/08/01 09:21:21;;;;;;;13.35;2.17;;;;;;;;;;4826227;29;20521;-79
2022/08/01 09:23:50;;;;;;;14.02;2.28;;;;;;;;;;4813951;29;20050;-81
2022/08/01 09:26:44;;;;;;;14.88;2.45;;;;;;;;;;4822840;29;20085;-78
2022/08/01 09:29:18;;;;;;;11.30;1.92;;;;;;;;;;4812311;29;20093;-82
2022/08/01 09:31:51;;;;;;;8.52;2.58;;;;;;;;;;4818000;29;20050;-78
2022/08/01 09:34:24;;;;;;;7.60;1.70;;;;;;;;;;4823288;29;20763;-79
2022/08/01 09:36:55;;;;;;;11.10;2.07;;;;;;;;;;4820676;29;20042;-81
2022/08/01 09:39:25;;;;;;;10.25;1.92;;;;;;;;;;4822302;29;20068;-81
2022/08/01 09:41:52;;;;;;;13.10;2.10;;;;;;;;;;4828538;29;20146;-81
2022/08/01 09:44:20;;;;;;;10.32;2.22;;;;;;;;;;4819075;29;20072;-78
2022/08/01 09:46:49;;;;;;;7.30;1.95;;;;;;;;;;4824114;29;20631;-80
2022/08/01 09:49:27;;;;;;;12.13;2.13;;;;;;;;;;4824792;29;20034;-81
2022/08/01 09:51:53;;;;;;;9.55;1.40;;;;;;;;;;4827959;29;20043;-81
2022/08/01 09:54:32;;;;;;;15.82;2.35;;;;;;;;;;4817904;29;20050;-82
2022/08/01 09:57:09;;;;;;;11.40;1.67;;;;;;;;;;4826043;29;20081;-81
2022/08/01 09:59:41;;;;;;;6.85;1.75;;;;;;;;;;4812852;29;20054;-84
2022/08/01 10:02:08;;;;;;;11.38;2.30;;;;;;;;;;4827284;29;20055;-81
2022/08/01 10:04:34;;;;;;;14.77;2.58;;;;;;;;;;4841015;29;20036;-83
2022/08/01 10:07:07;;;;;;;12.93;1.73;;;;;;;;;;4833814;29;20071;-83
2022/08/01 10:09:37;;;;;;;10.27;1.83;;;;;;;;;;4837658;29;20531;-82
2022/08/01 10:12:05;;;;;;;9.70;1.90;;;;;;;;;;4851324;29;20057;-81
2022/08/01 10:14:32;;;;;;;15.95;2.13;;;;;;;;;;4815913;29;20054;-82
2022/08/01 10:16:58;;;;;;;11.75;1.98;;;;;;;;;;4845137;29;20087;-81
2022/08/01 10:26:10;;;;;;;10.07;1.70;;;;;;;;;;4856146;29;20584;-83
2022/08/01 10:28:38;;;;;;;8.13;1.90;;;;;;;;;;4863718;29;20090;-83
2022/08/01 10:31:23;;;;;;;8.60;1.77;;;;;;;;;;4851424;29;20040;-81
2022/08/01 10:33:52;;;;;;;12.65;2.25;;;;;;;;;;4864936;29;20109;-82
2022/08/01 10:36:34;;;;;;;11.32;2.28;;;;;;;;;;4860096;29;20060;-80
2022/08/01 10:42:42;;;;;;;14.40;2.03;;;;;;;;;;4869905;29;20083;-83
2022/08/01 10:45:09;;;;;;;8.73;1.75;;;;;;;;;;4839678;29;20358;-82
2022/08/01 10:47:49;;;;;;;11.95;2.05;;;;;;;;;;4871272;29;20045;-82
2022/08/01 10:50:43;;;;;;;10.68;2.30;;;;;;;;;;4833630;29;20053;-81
2022/08/01 10:53:34;;;;;;;7.40;2.03;;;20.40;99.90;;;;;;4836756;29;20069;-82
2022/08/01 10:56:05;;;;;;;9.15;1.85;;;;;;;;;;4859521;29;20073;-83
2022/08/01 10:58:50;;;;;;;14.18;1.80;;;;;;;;;;4835363;29;20041;-81
2022/08/01 11:01:22;;;;;;;8.65;1.92;;;;;;;;;;4866314;29;20117;-82
2022/08/01 11:03:57;;;;;;;10.65;2.25;;;;;;;;;;4862187;29;20575;-83
2022/08/01 11:06:25;;;;;;;13.90;1.90;;;;;;;;;;4860901;29;20136;-83
2022/08/01 11:08:55;;;;;;;10.57;1.85;;;;;;;;;;4851107;29;20553;-82
2022/08/01 11:11:23;;;;;;;6.50;1.98;;;;;;;;;;4856883;29;20049;-80
2022/08/01 11:14:11;;;;;;;11.45;2.03;;;;;;;;;;4861356;29;20458;-82
2022/08/01 11:20:26;;;;;;;12.63;2.20;;;;;;;;;;4823982;23;20117;-82
2022/08/01 11:23:47;;;;;;;9.02;1.95;;;21.20;99.90;;;;;;4835900;29;20543;-84
2022/08/01 11:26:14;;;;;;;10.43;1.55;;;;;;;;;;4865379;29;20059;-83
2022/08/01 11:39:07;;;;;;;8.32;1.80;;;;;;;;;;4849321;29;20110;-82
2022/08/01 11:44:39;;;;;;;;;;;;;;;;;;4851001;29;20141;-83
2022/08/01 11:47:11;;;;;;;11.25;1.58;;;;;;;;;;4853634;29;19966;-82
2022/08/01 11:49:39;;;;;;;7.85;1.75;;;;;;;;;;4817811;29;20419;-82
2022/08/01 11:55:29;;;;;;;15.88;1.65;;;;;;;;;;4825564;29;20054;-83
2022/08/01 12:06:52;;;;;;;5.25;1.45;;;;;;;;;;4943683;23;20053;-82
2022/08/01 12:09:46;;;;;;;8.95;1.38;;;;;;;;;;4806688;29;20132;-82
2022/08/01 12:12:16;;;;;;;10.93;1.65;;;;;;;;;;4818025;29;20073;-82
2022/08/01 12:14:58;;;;;;;10.88;1.95;;;;;;;;;;4841756;29;20061;-83
2022/08/01 12:18:04;;;;;;;7.40;1.70;;;;;;;;;;4824972;29;20089;-83
2022/08/01 12:20:49;;;;;;;8.82;2.08;;;;;;;;;;4821899;29;20089;-84
2022/08/01 12:23:46;;;;;;;7.90;1.80;;;;;;;;;;4812606;29;20601;-83
2022/08/01 12:26:12;;;;;;;6.95;1.38;;;;;;;;;;4842328;29;20052;-82
2022/08/01 12:28:40;;;;;;;6.55;1.15;;;;;;;;;;4824620;29;20057;-82
2022/08/01 12:31:18;;;;;;;8.02;1.77;;;;;;;;;;4840430;29;20057;-84
2022/08/01 12:34:22;;;;;;;9.02;1.80;;;;;;;;;;4853805;29;20060;-83
2022/08/01 12:36:48;;;;;;;8.48;1.70;;;;;;;;;;4831072;29;20458;-83
2022/08/01 12:39:39;;;;;;;9.00;1.35;;;;;;;;;;4840100;29;20380;-83
2022/08/01 12:42:14;;;;;;;7.85;1.70;;;;;;;;;;4846789;29;20050;-83
2022/08/01 12:44:51;;;;;;;12.25;1.88;;;;;;;;;;4850218;29;20102;-82
2022/08/01 12:47:38;;;;;;;16.35;4.45;;;;;;;;;;4847428;29;20434;-82
2022/08/01 12:50:07;;;;;;;9.15;1.83;;;;;;;;;;4841875;29;20050;-81
2022/08/01 12:52:39;;;;;;;10.40;1.88;;;;;;;;;;4850556;29;20352;-82
2022/08/01 12:55:08;;;;;;;9.93;1.70;;;;;;;;;;4839739;29;20046;-83
2022/08/01 12:57:41;;;;;;;6.28;1.80;;;;;;;;;;4807312;29;20062;-82
2022/08/01 13:00:07;;;;;;;10.32;1.83;;;;;;;;;;4839140;29;20069;-82
2022/08/01 13:02:36;;;;;;;10.27;1.70;;;;;;;;;;4838513;29;20152;-82
2022/08/01 13:05:06;;;;;;;8.75;1.75;;;;;;;;;;4823595;29;20197;-83
2022/08/01 13:21:34;;;;;;;6.05;1.50;;;;;;;;;;4867698;29;20948;-83
2022/08/01 13:24:27;;;;;;;7.75;1.60;;;;;;;;;;4895810;23;20109;-82
2022/08/01 13:27:20;;;;;;;8.65;1.92;;;;;;;;;;4837091;29;20065;-82
2022/08/01 13:29:49;;;;;;;7.90;1.60;;;;;;;;;;4845393;29;20133;-82
2022/08/01 13:32:16;;;;;;;8.23;1.77;;;;;;;;;;4850507;29;20056;-83
2022/08/01 13:34:42;;;;;;;11.05;2.13;;;;;;;;;;4841169;29;20122;-82
2022/08/01 13:37:08;;;;;;;6.57;1.45;;;;;;;;;;4850426;29;20049;-82
2022/08/01 13:39:40;;;;;;;6.25;1.45;;;;;;;;;;4822376;29;20499;-81
2022/08/01 13:42:06;;;;;;;8.93;1.80;;;;;;;;;;4826790;29;20106;-81
2022/08/01 13:44:35;;;;;;;10.57;1.80;;;;;;;;;;4829394;29;20050;-81
2022/08/01 13:47:05;;;;;;;9.77;1.95;;;;;;;;;;4823704;29;20101;-82
2022/08/01 13:49:31;;;;;;;5.68;1.40;;;;;;;;;;4819013;29;20049;-81
2022/08/01 13:52:07;;;;;;;5.45;1.63;;;;;;;;;;4837258;29;20042;-82
2022/08/01 13:54:34;;;;;;;8.93;1.90;;;;;;;;;;4837301;29;20137;-82
2022/08/01 13:57:03;;;;;;;6.35;1.75;;;;;;;;;;4815024;29;20136;-80
2022/08/01 13:59:32;;;;;;;8.77;2.25;;;;;;;;;;4836591;29;20533;-83
2022/08/01 14:01:58;;;;;;;9.43;1.70;;;;;;;;;;4807877;29;20084;-82
2022/08/01 14:04:30;;;;;;;10.57;2.33;;;;;;;;;;4840585;29;20040;-83
2022/08/01 14:07:02;;;;;;;11.30;1.80;;;;;;;;;;4842340;29;20050;-83
2022/08/01 14:09:39;;;;;;;7.47;1.75;;;;;;;;;;4835339;29;20065;-82
2022/08/01 14:15:26;;;;;;;8.05;1.83;;;;;;;;;;4839592;29;21531;-82
2022/08/01 14:17:52;;;;;;;9.98;1.85;;;;;;;;;;4833377;29;20049;-82
2022/08/01 14:20:31;;;;;;;7.50;1.92;;;;;;;;;;4839681;29;20081;-82
2022/08/01 14:22:57;;;;;;;6.30;1.83;;;;;;;;;;4817745;29;20087;-82
2022/08/01 14:25:25;;;;;;;9.65;1.98;;;;;;;;;;4833530;29;20585;-82
2022/08/01 14:27:51;;;;;;;14.27;2.00;;;;;;;;;;4836310;29;20045;-81
2022/08/01 14:30:18;;;;;;;9.30;2.03;;;;;;;;;;4814845;29;20038;-81
2022/08/01 14:38:48;;;;;;;7.38;1.70;;;;;;;;;;4844419;29;20076;-82
2022/08/01 14:41:27;;;;;;;5.88;1.50;;;;;;;;;;4821756;29;20270;-83
2022/08/01 14:43:54;;;;;;;7.85;2.45;;;;;;;;;;4835026;29;20049;-82
2022/08/01 14:46:33;;;;;;;6.28;1.88;;;;;;;;;;4817773;29;20054;-83
2022/08/01 14:48:59;;;;;;;8.10;1.58;;;;;;;;;;4830297;29;20089;-83
2022/08/01 14:51:44;;;;;;;7.78;1.88;;;;;;;;;;4816398;29;20130;-83
2022/08/01 14:54:10;;;;;;;5.18;1.52;;;;;;;;;;4836799;29;20049;-83
2022/08/01 14:56:36;;;;;;;6.50;1.63;;;;;;;;;;4834198;29;20050;-82
2022/08/01 14:59:02;;;;;;;8.57;2.03;;;;;;;;;;4839537;29;20395;-83
2022/08/01 15:01:28;;;;;;;7.05;1.95;;;;;;;;;;4804365;29;20053;-81
2022/08/01 15:03:55;;;;;;;8.32;1.85;;;;;;;;;;4815155;29;20061;-83
2022/08/01 15:28:19;;;;;;;6.22;1.50;;;;;;;;;;4827864;29;20049;-81
2022/08/01 15:30:45;;;;;;;6.28;1.67;;;;;;;;;;4806625;29;20065;-80
2022/08/01 15:33:24;;;;;;;9.68;2.03;;;;;;;;;;4826105;29;20094;-80
2022/08/01 15:35:50;;;;;;;9.50;2.72;;;;;;;;;;4812772;29;20502;-81
2022/08/01 15:38:16;;;;;;;8.45;1.95;;;;;;;;;;4829518;29;20078;-80
2022/08/01 15:40:42;;;;;;;7.20;1.67;;;;;;;;;;4824400;29;20079;-80
2022/08/01 15:43:09;;;;;;;9.57;2.03;;;;;;;;;;4800684;29;20089;-80
2022/08/01 15:45:35;;;;;;;7.50;2.10;;;;;;;;;;4823634;29;20050;-80
2022/08/01 15:48:01;;;;;;;5.47;1.30;;;;;;;;;;4821831;29;20100;-81
2022/08/01 15:50:27;;;;;;;9.40;2.10;;;;;;;;;;4820852;29;20458;-81
2022/08/01 15:52:53;;;;;;;8.88;1.90;;;;;;;;;;4825055;29;20502;-80
2022/08/01 15:55:22;;;;;;;7.65;1.77;;;;;;;;;;4813630;29;20519;-80
2022/08/01 15:57:56;;;;;;;10.07;2.00;;;;;;;;;;4800572;29;20109;-81
2022/08/01 16:00:25;;;;;;;8.52;1.50;;;;;;;;;;4814040;29;20119;-81
2022/08/01 16:02:51;;;;;;;7.47;1.77;;;;;;;;;;4822071;29;20102;-80
2022/08/01 16:05:24;;;;;;;5.03;1.60;;;;;;;;;;4823879;29;20039;-80
2022/08/01 16:07:50;;;;;;;7.13;1.70;;;;;;;;;;4802573;29;20719;-80
2022/08/01 16:10:16;;;;;;;7.82;1.98;;;;;;;;;;4818574;29;20046;-80
2022/08/01 16:12:42;;;;;;;6.82;1.98;;;;;;;;;;4821368;29;20043;-81
2022/08/01 16:15:09;;;;;;;10.15;1.95;;;;;;;;;;4817487;29;20051;-81
2022/08/01 16:17:41;;;;;;;12.02;1.77;;;;;;;;;;4809417;29;20137;-81
2022/08/01 16:22:58;;;;;;;7.57;1.83;;;;;;;;;;4816836;29;20110;-80
2022/08/01 16:25:30;;;;;;;8.05;2.10;;;;;;;;;;4823039;29;20053;-81
2022/08/01 16:28:07;;;;;;;7.30;2.08;;;;;;;;;;4818067;29;20436;-80
2022/08/01 16:30:34;;;;;;;4.78;1.30;;;;;;;;;;4837563;29;20082;-81
2022/08/01 16:33:00;;;;;;;6.32;1.52;;;;;;;;;;4825651;29;20103;-82
2022/08/01 16:35:26;;;;;;;9.68;1.95;;;;;;;;;;4825090;29;20518;-81
2022/08/01 16:37:52;;;;;;;5.18;1.50;;;;;;;;;;4823687;29;20137;-82
2022/08/01 16:40:19;;;;;;;8.48;1.92;;;;;;;;;;4828187;29;20050;-81
2022/08/01 16:42:45;;;;;;;9.52;2.13;;;;;;;;;;4822553;29;20637;-81
2022/08/01 16:45:14;;;;;;;5.40;1.80;;;;;;;;;;4818565;29;20194;-82
2022/08/01 16:47:44;;;;;;;6.82;1.35;;;;;;;;;;4835951;29;20046;-81
2022/08/01 16:50:10;;;;;;;8.27;1.50;;;;;;;;;;4828742;29;20042;-82
2022/08/01 16:52:36;;;;;;;8.30;2.13;;;;;;;;;;4818058;29;20530;-82
2022/08/01 16:55:02;;;;;;;8.82;1.90;;;;;;;;;;4826883;29;20050;-83
2022/08/01 16:57:35;;;;;;;6.97;1.88;;;;;;;;;;4821541;29;20054;-82
2022/08/01 17:00:12;;;;;;;5.75;1.60;;;;;;;;;;4828093;29;20579;-83
2022/08/01 17:02:42;;;;;;;7.15;1.70;;;;;;;;;;4832735;29;20050;-79
2022/08/01 17:05:11;;;;;;;5.32;1.67;;;;;;;;;;4821768;29;20050;-82